Adolfo Ruiz Cortinez, Mexico

10:37 PM CDT on May 24, 2017 (GMT -0500)
Minatitlan | | Change Station

Elev 131 ft 18.10 °N, 94.58 °W | Updated 2 hours ago

Rain
Rain
84 °F
Feels Like 96 °F
N
17
Wind Variable Wind from North

Today
High -- | Low -- °F
--% Chance of Precip.
Yesterday
High -- | Low -- °F
Precip. -- in
Pressure 29.73 in
Visibility 7.0 miles
Clouds Scattered Clouds 10000 ft
Heat Index 96 °F
Dew Point 79 °F
Humidity 84%
Rainfall 0.00 in
Snow Depth Not available.
6:45 AM 7:48 PM
Waning Crescent, 1% visible
METAR MMMT 250040Z 35015KT 7SM SCT100 29/26 A2973 RMK 8/020
Pressure 29.73 in
Visibility 7.0 miles
Clouds Scattered Clouds 10000 ft
Heat Index 96 °F
Dew Point 79 °F
Humidity 84%
Rainfall 0.00 in
Snow Depth Not available.
6:45 AM 7:48 PM
Waning Crescent, 1% visible
METAR MMMT 250040Z 35015KT 7SM SCT100 29/26 A2973 RMK 8/020

Get Severe Weather Alerts

Thanks for signing up!

Be on the lookout for a verification email in your inbox.

You'll start receiving the daily forecast at 6 AM.

×

10-Day Weather Forecast

No radar image for this location.
×

Almanac

Astronomy

May. 24, 2017 Rise Set
Actual Time
Civil Twilight
Nautical Twilight
Astronomical Twilight
Moon
Length of Visible Light
Length of Day
Tomorrow will be .
, % of the Moon is Illuminated

Today's Extremes

Country Highs Country Lows

Community

WunderPhotos

Category 6

Welcome to Category 6. This is the collective home for Weather Underground's featured writeups by Dr. Jeff Masters (right), Bob Henson (left), Chris Burt, and other regular contributors.

Nearby

Air Quality

  Air Quality AQ Index Pollutant
Not available.

Snow Depth

Station Depth Elevation

Earthquake Activity

City Distance Mag. Time & Date
Minimum magnitude displayed is 2.5.

Coastal Water Temperatures

Place Temperature

Stations

Nearby Weather Stations

Station Location Temp. Windchill Dew Point Humidity Wind Precip. Elev Updated Type